Data for 07/08/2013

Time Sea-Level Adjusted Pressure Absolute Pressure Temperature Relative Humidity Dew Point   
(mb) (inHg) (mb) (inHg) (C) (F) (%) (C) (F)
00:05 1018 30.06 847 25.01 18 64.5 55 9.1 48.4
00:10 1018 30.06 847 25.01 18 64.3 56 9 48.3
00:15 1018 30.06 847 25.01 17.8 64.1 56 9.1 48.4
00:20 1018 30.06 847 25.01 17.7 63.8 57 9.2 48.6
00:25 1018 30.06 847 25.01 17.6 63.8 56 9 48.2
00:30 1018 30.06 847 25.01 17.7 63.8 56 8.9 48
00:35 1018 30.06 847 25.01 17.5 63.6 57 9.1 48.3
00:40 1018 30.06 847 25.01 17.4 63.3 57 8.8 47.9
00:45 1018 30.06 847 25.01 17.2 63 58 9 48.2
00:50 1018 30.06 847 25.01 17.1 62.7 58 8.8 47.9
00:55 1018 30.06 847 25.01 17.1 62.9 57 8.8 47.8
01:00 1018 30.06 847 25.01 17.2 62.9 57 8.8 47.8
01:05 1018 30.06 847 25.01 17.2 62.9 57 8.7 47.7
01:10 1018 30.06 847 25.01 17.3 63.1 55 8.3 47
01:15 1017 30.03 847 25.01 17.4 63.4 55 8.3 46.9
01:20 1017 30.03 847 25.01 17.3 63.2 55 8.3 47
01:25 1017 30.03 847 25.01 17.2 63 55 8.3 46.9
01:30 1018 30.06 847 25.01 17.1 62.7 56 8.4 47.2
01:35 1018 30.06 847 25.01 16.8 62.2 59 8.7 47.7
01:40 1018 30.06 847 25.01 16.6 61.9 58 8.3 46.9
01:45 1018 30.06 847 25.01 16.5 61.7 62 9.4 48.8
01:50 1018 30.06 847 25.01 16.4 61.5 61 9 48.2
01:55 1018 30.06 847 25.01 16.2 61.1 61 8.6 47.5
02:00 1018 30.06 847 25.01 16 60.8 61 8.6 47.5
02:05 1018 30.06 847 25.01 15.9 60.7 61 8.4 47.2
02:10 1018 30.06 847 25.01 15.9 60.6 62 8.8 47.9
02:15 1018 30.06 847 25.01 15.8 60.4 62 8.5 47.3
02:20 1018 30.06 847 25.01 15.9 60.6 61 8.4 47.1
02:25 1018 30.06 847 25.01 15.8 60.4 62 8.6 47.4
02:30 1018 30.06 847 25.01 15.7 60.3 60 8 46.4
02:35 1018 30.06 847 25.01 16.2 61.1 59 8.2 46.8
02:40 1017 30.03 847 25.01 16.1 61 59 8.2 46.8
02:45 1017 30.03 847 25.01 15.9 60.6 60 8.2 46.7
02:50 1017 30.03 847 25.01 16 60.8 58 7.9 46.2
02:55 1017 30.03 847 25.01 16.3 61.4 58 8.1 46.7
03:00 1017 30.03 847 25.01 16.4 61.5 55 7.5 45.5
03:05 1017 30.03 847 25.01 16.5 61.7 57 8.1 46.5
03:10 1017 30.03 847 25.01 16.4 61.5 56 7.7 45.9
03:15 1017 30.03 847 25.01 16.4 61.4 56 7.6 45.7
03:20 1017 30.03 847 25.01 16.3 61.3 58 8.1 46.6
03:25 1017 30.03 847 25.01 15.9 60.6 60 8.3 47
03:30 1018 30.06 847 25.01 15.7 60.3 59 7.9 46.3
03:35 1018 30.06 847 25.01 15.6 60 59 7.8 46
03:40 1018 30.06 847 25.01 15.6 60.1 59 7.6 45.7
03:45 1018 30.06 847 25.01 15.6 60 60 8 46.3
03:50 1018 30.06 847 25.01 15.1 59.2 62 8 46.3
03:55 1018 30.06 847 25.01 14.8 58.6 63 7.8 46
04:00 1017 30.03 847 25.01 14.7 58.4 62 7.6 45.7
04:05 1017 30.03 847 25.01 14.8 58.6 61 7.5 45.5
04:10 1017 30.03 847 25.01 14.8 58.6 62 7.6 45.6
04:15 1018 30.06 847 25.01 14.7 58.4 62 7.5 45.6
04:20 1018 30.06 847 25.01 14.7 58.5 61 7.3 45.1
04:25 1018 30.06 847 25.01 15 59 60 7.3 45.1
04:30 1018 30.06 847 25.01 15 59 61 7.5 45.6
04:35 1018 30.06 847 25.01 14.9 58.9 60 7.4 45.3
04:40 1018 30.06 847 25.01 14.7 58.5 62 7.6 45.7
04:45 1018 30.06 847 25.01 14.5 58.1 62 7.5 45.5
04:50 1018 30.06 847 25.01 14.7 58.4 62 7.5 45.5
04:55 1018 30.06 847 25.01 14.9 58.9 61 7.6 45.7
05:00 1018 30.06 847 25.01 14.6 58.3 63 7.8 46
05:05 1018 30.06 847 25.01 14.5 58.2 63 7.6 45.8
05:10 1018 30.06 847 25.01 14.7 58.4 62 7.6 45.7
05:15 1018 30.06 847 25.01 15 58.9 61 7.5 45.4
05:20 1018 30.06 847 25.01 15.3 59.5 60 7.5 45.6
05:25 1018 30.06 847 25.01 15.4 59.8 60 7.8 46
05:30 1018 30.06 847 25.01 15.3 59.5 61 7.8 46
05:35 1018 30.06 847 25.01 15.2 59.3 61 7.8 46.1
05:40 1018 30.06 847 25.01 15 59 62 7.8 46
05:45 1018 30.06 847 25.01 15.1 59.1 62 7.8 46.1
05:50 1018 30.06 847 25.01 15 59 63 8 46.4
05:55 1018 30.06 847 25.01 15.1 59.2 61 7.8 46
06:00 1018 30.06 847 25.01 15.4 59.8 61 7.9 46.3
06:05 1018 30.06 847 25.01 15.6 60.1 60 8 46.4
06:10 1018 30.06 847 25.01 15.8 60.4 60 8.1 46.6
06:15 1018 30.06 847 25.01 15.9 60.6 59 8.1 46.5
06:20 1018 30.06 847 25.01 16.1 60.9 59 8.2 46.8
06:25 1018 30.06 847 25.01 16.3 61.3 59 8.4 47.1
06:30 1018 30.06 847 25.01 16.5 61.7 58 8.4 47.1
06:35 1018 30.06 848 25.04 16.7 62 57 8.1 46.6
06:40 1018 30.06 848 25.04 16.9 62.4 55 7.9 46.3
06:45 1019 30.09 848 25.04 17.2 62.9 56 8.3 47
06:50 1019 30.09 848 25.04 17.9 64.1 53 8.2 46.8
06:55 1019 30.09 848 25.04 18.1 64.6 53 8.5 47.2
07:00 1019 30.09 848 25.04 18.3 64.9 54 8.9 48.1
07:05 1019 30.09 848 25.04 18.4 65.1 52 8.5 47.4
07:10 1019 30.09 848 25.04 19 66.1 49 8.2 46.7
07:15 1019 30.09 848 25.04 19.4 67 48 8.3 47
07:20 1019 30.09 848 25.04 19.7 67.4 49 8.9 48.1
07:25 1019 30.09 848 25.04 19.4 67 48 8.4 47.1
07:30 1019 30.09 848 25.04 20 68 46 8.1 46.6
07:35 1019 30.09 848 25.04 19.8 67.7 49 9.1 48.3
07:40 1019 30.09 848 25.04 19.5 67.1 48 8.4 47.1
07:45 1018 30.06 848 25.04 18.9 66.1 49 8 46.4
07:50 1019 30.09 848 25.04 19 66.2 49 8.3 46.9
07:55 1018 30.06 848 25.04 19.7 67.5 46 7.9 46.2
08:00 1018 30.06 848 25.04 19.9 67.7 48 8.7 47.6
08:05 1018 30.06 848 25.04 19.9 67.8 48 8.5 47.4
08:10 1018 30.06 848 25.04 19.7 67.5 48 8.6 47.6
08:15 1018 30.06 848 25.04 20 68 48 8.8 47.9
08:20 1018 30.06 848 25.04 20.5 68.8 45 8.1 46.6
08:25 1018 30.06 847 25.01 21.2 70.2 44 8.6 47.4
08:30 1018 30.06 847 25.01 21.2 70.1 44 8.7 47.7
08:35 1018 30.06 847 25.01 21.1 70 44 8.7 47.6
08:40 1018 30.06 847 25.01 21.5 70.7 43 8.6 47.5
08:45 1018 30.06 847 25.01 22.1 71.8 41 8.6 47.4
08:50 1018 30.06 847 25.01 22.9 73.1 40 8.9 48
08:55 1018 30.06 847 25.01 23 73.4 39 8.6 47.4
09:00 1018 30.06 847 25.01 23.2 73.8 41 9.3 48.8
09:05 1018 30.06 847 25.01 23 73.4 39 8.7 47.6
09:10 1018 30.06 847 25.01 23.5 74.2 40 9.3 48.8
09:15 1018 30.06 847 25.01 23.9 74.9 39 9.3 48.7
09:20 1018 30.06 847 25.01 24 75.2 40 9.7 49.4
09:25 1018 30.06 847 25.01 24.3 75.7 39 9.5 49
09:30 1018 30.06 847 25.01 24.9 76.9 38 9.8 49.7
09:35 1018 30.06 847 25.01 24.9 76.9 40 10.5 50.9
09:40 1018 30.06 847 25.01 24.8 76.7 39 10.1 50.2
09:45 1018 30.06 847 25.01 23.9 74.9 42 10.3 50.5
09:50 1018 30.06 847 25.01 23.8 74.8 41 10 50.1
09:55 1017 30.03 847 25.01 24.4 75.8 41 10.4 50.8
10:00 1017 30.03 847 25.01 24.5 76 39 9.8 49.6
10:05 1017 30.03 847 25.01 25 76.9 39 10.4 50.8
10:10 1017 30.03 847 25.01 24.3 75.8 42 10.8 51.4
10:15 1017 30.03 847 25.01 24.2 75.5 40 10 50
10:20 1017 30.03 847 25.01 25.4 77.6 38 10.2 50.3
10:25 1018 30.06 847 25.01 25.4 77.8 39 10.8 51.5
10:30 1018 30.06 847 25.01 25.3 77.5 39 10.4 50.7
10:35 1018 30.06 847 25.01 25 77 38 9.9 49.7
10:40 1018 30.06 847 25.01 25 76.9 38 9.7 49.5
10:45 1018 30.06 847 25.01 25.3 77.6 37 10 50
10:50 1018 30.06 847 25.01 25.7 78.3 37 10.3 50.6
10:55 1018 30.06 847 25.01 25.7 78.3 38 10.7 51.3
11:00 1018 30.06 847 25.01 25 77 41 11.2 52.2
11:05 1018 30.06 847 25.01 24.2 75.6 41 10.2 50.4
11:10 1018 30.06 847 25.01 24.6 76.3 40 10.3 50.6
11:15 1018 30.06 847 25.01 24.9 76.7 40 10.5 50.9
11:20 1018 30.06 847 25.01 24.4 75.8 40 10 50.1
11:25 1018 30.06 847 25.01 24.8 76.6 41 10.7 51.2
11:30 1018 30.06 847 25.01 24.7 76.4 40 10.3 50.5
11:35 1018 30.06 847 25.01 24.8 76.6 40 10.5 50.8
11:40 1017 30.03 847 25.01 24.6 76.3 40 10.2 50.3
11:45 1017 30.03 847 25.01 25 76.9 39 10.4 50.8
11:50 1017 30.03 847 25.01 24.9 76.7 39 10.2 50.4
11:55 1017 30.03 847 25.01 24.9 76.8 37 9.5 49.1
12:00 1017 30.03 847 25.01 25.8 78.4 35 9.4 48.9
12:05 1017 30.03 846 24.98 25.8 78.4 33 8.4 47.2
12:10 1017 30.03 846 24.98 25.9 78.6 32 8.2 46.7
12:15 1017 30.03 846 24.98 26.5 79.8 30 7.8 46.1
12:20 1017 30.03 846 24.98 26.9 80.4 29 7.8 46
12:25 1017 30.03 846 24.98 27.3 81.1 29 8.2 46.7
12:30 1017 30.03 846 24.98 27.8 82 28 7.9 46.3
12:35 1017 30.03 846 24.98 28.1 82.6 28 8.4 47.2
12:40 1017 30.03 846 24.98 27.8 82 30 9 48.1
12:45 1017 30.03 846 24.98 27.3 81.2 31 9.2 48.6
12:50 1017 30.03 846 24.98 26.6 79.9 33 9.1 48.4
12:55 1017 30.03 846 24.98 26.2 79.1 33 8.8 47.9
13:00 1017 30.03 846 24.98 26 78.8 37 10.4 50.7
13:05 1016 30 846 24.98 25.2 77.3 38 10 50
13:10 1016 30 845 24.95 25.1 77.3 31 7 44.7
13:15 1016 30 845 24.95 25.4 77.6 30 6.7 44.1
13:20 1017 30.03 846 24.98 25.5 77.8 32 7.9 46.3
13:25 1017 30.03 846 24.98 24.8 76.6 49 13.5 56.4
13:30 1017 30.03 846 24.98 22.7 72.8 52 12.5 54.5
13:35 1018 30.06 847 25.01 22.7 72.9 52 12.5 54.4
13:40 1018 30.06 847 25.01 22.5 72.6 56 13.3 56
13:45 1018 30.06 847 25.01 21.7 71.1 62 14.3 57.7
13:50 1018 30.06 847 25.01 21 69.8 61 13.4 56.1
13:55 1017 30.03 847 25.01 21 69.8 40 7.1 44.8
14:00 1017 30.03 846 24.98 22 71.6 55 12.6 54.6
14:05 1017 30.03 846 24.98 21.4 70.4 67 15 59.1
14:10 1017 30.03 846 24.98 20.5 68.8 64 13.5 56.2
14:15 1017 30.03 846 24.98 20.4 68.7 65 13.7 56.6
14:20 1017 30.03 847 25.01 20.4 68.7 61 12.7 54.8
14:25 1017 30.03 847 25.01 20.7 69.2 64 13.8 56.9
14:30 1017 30.03 847 25.01 20.8 69.5 68 14.7 58.4
14:35 1018 30.06 847 25.01 20.8 69.4 65 14.1 57.5
14:40 1018 30.06 847 25.01 20.7 69.3 64 13.8 56.9
14:45 1018 30.06 847 25.01 20.7 69.2 64 13.7 56.7
14:50 1018 30.06 847 25.01 20.7 69.2 62 13.3 55.9
14:55 1018 30.06 847 25.01 20.7 69.2 60 12.7 54.8
15:00 1017 30.03 847 25.01 20.6 69 64 13.6 56.5
15:05 1017 30.03 846 24.98 20.5 68.9 70 15 59
15:10 1017 30.03 847 25.01 20.5 68.9 66 14 57.1
15:15 1018 30.06 847 25.01 20.3 68.5 69 14.5 58
15:20 1018 30.06 847 25.01 19.6 67.3 69 13.9 57
15:25 1017 30.03 846 24.98 19.2 66.5 66 12.7 54.8
15:30 1017 30.03 846 24.98 18.8 65.8 73 13.9 57
15:35 1018 30.06 847 25.01 18.7 65.6 70 13.1 55.5
15:40 1018 30.06 847 25.01 18.8 65.8 70 13.2 55.7
15:45 1018 30.06 847 25.01 19 66.1 70 13.4 56.2
15:50 1018 30.06 847 25.01 19 66.2 72 13.8 56.9
15:55 1018 30.06 847 25.01 19.1 66.3 69 13.3 55.9
16:00 1018 30.06 847 25.01 19.2 66.5 68 13.1 55.6
16:05 1018 30.06 847 25.01 19.8 67.6 51 9.5 49.1
16:10 1017 30.03 847 25.01 20.5 68.8 55 11.3 52.3
16:15 1018 30.06 847 25.01 20.8 69.5 55 11.5 52.6
16:20 1018 30.06 847 25.01 21 69.8 54 11.4 52.5
16:25 1018 30.06 847 25.01 21.1 70.1 56 12 53.7
16:30 1018 30.06 847 25.01 22.1 71.8 53 12.2 54
16:35 1018 30.06 847 25.01 22 71.5 49 10.9 51.7
16:40 1017 30.03 847 25.01 21.5 70.6 50 10.9 51.5
16:45 1017 30.03 847 25.01 21.4 70.4 51 10.9 51.6
16:50 1017 30.03 847 25.01 21.2 70.2 50 10.7 51.2
16:55 1018 30.06 847 25.01 21.2 70.1 55 12 53.6
17:00 1018 30.06 847 25.01 21.2 70.2 51 10.9 51.6
17:05 1018 30.06 847 25.01 21.2 70.1 52 11.2 52.1
17:10 1018 30.06 847 25.01 21.2 70.1 49 10.2 50.3
17:15 1018 30.06 847 25.01 21 69.9 56 12.2 53.9
17:20 1018 30.06 847 25.01 20.9 69.6 57 12.2 53.9
17:25 1018 30.06 847 25.01 20.6 69.1 58 12.1 53.8
17:30 1018 30.06 847 25.01 20.7 69.2 59 12.3 54.2
17:35 1018 30.06 847 25.01 20.7 69.3 59 12.6 54.6
17:40 1018 30.06 847 25.01 20.8 69.5 59 12.6 54.6
17:45 1018 30.06 847 25.01 20.6 69.1 64 13.6 56.5
17:50 1018 30.06 847 25.01 20.5 69 60 12.6 54.7
17:55 1018 30.06 847 25.01 20.9 69.6 61 13.3 56
18:00 1018 30.06 847 25.01 21.1 70 56 12.2 53.9
18:05 1018 30.06 848 25.04 21.3 70.3 54 11.8 53.2
18:10 1018 30.06 848 25.04 21.4 70.5 54 11.7 53.1
18:15 1019 30.09 848 25.04 21.3 70.4 54 11.8 53.2
18:20 1019 30.09 848 25.04 21.5 70.8 55 12.2 54
18:25 1019 30.09 848 25.04 21.6 70.9 55 12.3 54.1
18:30 1019 30.09 848 25.04 21.5 70.6 55 12.3 54.2
18:35 1019 30.09 848 25.04 21.5 70.7 55 12.3 54.1
18:40 1019 30.09 848 25.04 21.5 70.7 54 11.9 53.5
18:45 1019 30.09 848 25.04 21.6 70.9 56 12.5 54.5
18:50 1019 30.09 848 25.04 21.7 71 53 11.8 53.2
18:55 1019 30.09 848 25.04 21.8 71.2 53 11.9 53.5
19:00 1019 30.09 848 25.04 21.7 71 55 12.4 54.3
19:05 1019 30.09 848 25.04 21.8 71.2 55 12.6 54.7
19:10 1019 30.09 848 25.04 21.8 71.2 54 12.3 54.1
19:15 1019 30.09 848 25.04 21.7 71 52 11.6 53
19:20 1019 30.09 848 25.04 21.7 71 53 11.8 53.2
19:25 1019 30.09 848 25.04 21.6 70.9 54 12 53.5
19:30 1019 30.09 848 25.04 21.5 70.7 52 11.5 52.6
19:35 1019 30.09 848 25.04 21.5 70.7 55 12.3 54.2
19:40 1019 30.09 848 25.04 21.3 70.4 56 12.4 54.4
19:45 1019 30.09 848 25.04 21.2 70.1 56 12.1 53.7
19:50 1019 30.09 848 25.04 21 69.8 56 11.9 53.5
19:55 1019 30.09 848 25.04 21 69.7 53 11.2 52.1
20:00 1019 30.09 848 25.04 20.9 69.6 59 12.7 54.9
20:05 1019 30.09 848 25.04 20.7 69.3 59 12.5 54.6
20:10 1019 30.09 848 25.04 20.6 69 61 13 55.4
20:15 1019 30.09 849 25.07 20.4 68.7 58 12 53.6
20:20 1019 30.09 849 25.07 20.5 68.9 54 10.9 51.7
20:25 1019 30.09 849 25.07 20.8 69.5 50 10.1 50.1
20:30 1019 30.09 849 25.07 21.1 70 57 12.3 54.1
20:35 1020 30.12 849 25.07 20.5 68.8 62 13 55.5
20:40 1020 30.12 849 25.07 19.2 66.5 71 13.8 56.9
20:45 1020 30.12 849 25.07 18.5 65.4 66 12.1 53.8
20:50 1020 30.12 849 25.07 18.7 65.6 72 13.7 56.6
20:55 1020 30.12 849 25.07 18.3 65 70 12.9 55.2
21:00 1020 30.12 849 25.07 18.3 64.9 69 12.6 54.6
21:05 1020 30.12 849 25.07 18 64.4 73 13.1 55.5
21:10 1020 30.12 849 25.07 18 64.4 72 13 55.4
21:15 1020 30.12 850 25.1 17.9 64.2 69 12.2 53.9
21:20 1021 30.15 850 25.1 18 64.4 70 12.5 54.4
21:25 1021 30.15 850 25.1 18 64.4 70 12.4 54.4
21:30 1021 30.15 850 25.1 17.8 64 72 12.7 54.8
21:35 1021 30.15 850 25.1 17.7 63.9 71 12.5 54.4
21:40 1021 30.15 850 25.1 17.6 63.7 69 11.9 53.5
21:45 1021 30.15 850 25.1 17.4 63.3 69 11.8 53.2
21:50 1021 30.15 850 25.1 17.1 62.8 72 12.1 53.7
21:55 1021 30.15 850 25.1 17.1 62.8 70 11.6 52.8
22:00 1021 30.15 850 25.1 17.1 62.9 69 11.5 52.8
22:05 1021 30.15 850 25.1 17.1 62.8 72 12 53.6
22:10 1021 30.15 850 25.1 16.9 62.5 72 12 53.6
22:15 1021 30.15 850 25.1 16.7 62 72 11.7 53
22:20 1021 30.15 850 25.1 16.5 61.7 73 11.6 52.9
22:25 1021 30.15 851 25.13 16.2 61.1 73 11.5 52.6
22:30 1021 30.15 851 25.13 15.9 60.6 75 11.5 52.7
22:35 1022 30.18 851 25.13 15.8 60.5 75 11.6 52.8
22:40 1022 30.18 851 25.13 15.9 60.5 73 11.2 52.1
22:45 1022 30.18 851 25.13 15.6 60.1 75 11.2 52.2
22:50 1022 30.18 851 25.13 15.5 60 71 10.4 50.8
22:55 1022 30.18 851 25.13 15.9 60.7 72 11 51.8
23:00 1022 30.18 851 25.13 15.5 60 75 11.2 52.2
23:05 1022 30.18 851 25.13 15.7 60.2 76 11.5 52.6
23:10 1022 30.18 851 25.13 15.7 60.3 74 11.2 52.1
23:15 1022 30.18 851 25.13 15.8 60.4 73 11 51.8
23:20 1022 30.18 851 25.13 16 60.8 72 11 51.8
23:25 1022 30.18 851 25.13 16.3 61.3 70 10.8 51.4
23:30 1022 30.18 851 25.13 16.3 61.4 71 11.2 52.2
23:35 1022 30.18 851 25.13 16 60.8 71 10.8 51.5
23:40 1022 30.18 851 25.13 16.5 61.6 69 10.9 51.6
23:45 1022 30.18 851 25.13 16.6 61.9 69 11 51.7
23:50 1022 30.18 852 25.16 16.3 61.4 71 11 51.9
23:55 1022 30.18 852 25.16 15.6 60.1 75 11.2 52.1
24:00 1022 30.18 852 25.16 15.4 59.7 73 10.6 51